Time,TemperatureF,DewpointF,PressureIn,WindDirection,WindDirectionDegrees,WindSpeedMPH,WindSpeedGustMPH,Humidity,HourlyPrecipIn,Conditions,Clouds,dailyrainin,SoftwareType,DateUTC
2013-01-26 00:03:00,64.0,59.0,30.21,WNW,292,0.0,0.0,84,0.00,,,0.00,,2013-01-26 05:03:00,
2013-01-26 00:12:00,64.0,59.0,30.21,WNW,292,0.0,0.0,84,0.00,,,0.00,,2013-01-26 05:12:00,
2013-01-26 00:23:00,64.0,59.0,30.21,NW,309,0.0,0.0,84,0.00,,,0.00,,2013-01-26 05:23:00,
2013-01-26 00:33:00,64.0,59.0,30.21,SW,222,0.0,0.0,84,0.00,,,0.00,,2013-01-26 05:33:00,
2013-01-26 00:42:00,64.0,59.0,30.21,SW,222,0.0,0.0,84,0.00,,,0.00,,2013-01-26 05:42:00,
2013-01-26 00:53:00,64.0,59.0,30.21,North,356,0.0,2.0,84,0.00,,,0.00,,2013-01-26 05:53:00,
2013-01-26 01:02:00,64.0,59.0,30.21,NW,305,0.0,0.0,84,0.00,,,0.00,,2013-01-26 06:02:00,
2013-01-26 01:12:00,64.0,59.0,30.21,NW,305,0.0,0.0,84,0.00,,,0.00,,2013-01-26 06:12:00,
2013-01-26 01:21:00,64.0,59.0,30.20,WNW,292,0.0,0.0,84,0.00,,,0.00,,2013-01-26 06:21:00,
2013-01-26 01:32:00,63.0,58.0,30.21,NNW,333,0.0,0.0,85,0.00,,,0.00,,2013-01-26 06:32:00,
2013-01-26 01:42:00,63.0,58.0,30.21,NNW,333,0.0,0.0,85,0.00,,,0.00,,2013-01-26 06:42:00,
2013-01-26 01:52:00,62.0,58.0,30.21,North,2,0.0,0.0,87,0.00,,,0.00,,2013-01-26 06:52:00,
2013-01-26 02:02:00,61.0,57.0,30.20,NE,45,0.0,0.0,88,0.00,,,0.00,,2013-01-26 07:02:00,
2013-01-26 02:12:00,61.0,57.0,30.20,NE,45,0.0,0.0,88,0.00,,,0.00,,2013-01-26 07:12:00,
2013-01-26 02:22:00,61.0,57.0,30.20,NE,45,0.0,0.0,88,0.00,,,0.00,,2013-01-26 07:22:00,
2013-01-26 02:33:00,59.0,55.0,30.19,NE,45,0.0,0.0,88,0.00,,,0.00,,2013-01-26 07:33:00,
2013-01-26 02:42:00,59.0,55.0,30.19,NE,45,0.0,0.0,88,0.00,,,0.00,,2013-01-26 07:42:00,
2013-01-26 02:52:00,59.0,57.0,30.19,North,0,0.0,0.0,92,0.00,,,0.00,,2013-01-26 07:52:00,
2013-01-26 03:02:00,59.0,57.0,30.19,ENE,68,0.0,0.0,94,0.00,,,0.00,,2013-01-26 08:02:00,
2013-01-26 03:11:00,59.0,57.0,30.19,ENE,68,0.0,0.0,94,0.00,,,0.00,,2013-01-26 08:11:00,
2013-01-26 03:21:00,59.0,57.0,30.19,West,270,0.0,0.0,94,0.00,,,0.00,,2013-01-26 08:21:00,
2013-01-26 03:32:00,58.0,56.0,30.19,NE,45,0.0,0.0,94,0.00,,,0.00,,2013-01-26 08:32:00,
2013-01-26 03:42:00,58.0,56.0,30.19,NE,45,0.0,0.0,94,0.00,,,0.00,,2013-01-26 08:42:00,
2013-01-26 03:54:00,58.0,57.0,30.19,NNW,333,0.0,0.0,95,0.00,,,0.00,,2013-01-26 08:54:00,
2013-01-26 04:02:00,58.0,57.0,30.19,North,0,0.0,0.0,95,0.00,,,0.00,,2013-01-26 09:02:00,
2013-01-26 04:11:00,58.0,57.0,30.19,North,0,0.0,0.0,95,0.00,,,0.00,,2013-01-26 09:11:00,
2013-01-26 04:22:00,57.0,56.0,30.19,NNW,334,0.0,0.0,95,0.00,,,0.00,,2013-01-26 09:22:00,
2013-01-26 04:32:00,59.0,58.0,30.19,NNW,334,1.0,3.0,95,0.00,,,0.00,,2013-01-26 09:32:00,
2013-01-26 04:42:00,59.0,58.0,30.19,NNW,334,1.0,3.0,95,0.00,,,0.00,,2013-01-26 09:42:00,
2013-01-26 04:52:00,58.0,57.0,30.19,SW,214,2.0,3.0,95,0.00,,,0.00,,2013-01-26 09:52:00,
2013-01-26 05:01:00,58.0,57.0,30.19,WNW,283,0.0,0.0,95,0.00,,,0.00,,2013-01-26 10:01:00,
2013-01-26 05:12:00,58.0,57.0,30.19,WNW,283,0.0,0.0,95,0.00,,,0.00,,2013-01-26 10:12:00,
2013-01-26 05:21:00,58.0,57.0,30.19,NNW,341,2.0,2.0,95,0.00,,,0.00,,2013-01-26 10:21:00,
2013-01-26 05:32:00,58.0,57.0,30.19,NW,321,1.0,2.0,95,0.00,,,0.00,,2013-01-26 10:32:00,
2013-01-26 05:42:00,58.0,57.0,30.19,NW,321,1.0,2.0,95,0.00,,,0.00,,2013-01-26 10:42:00,
2013-01-26 05:52:00,58.0,57.0,30.19,NNW,329,0.0,0.0,95,0.00,,,0.00,,2013-01-26 10:52:00,
2013-01-26 06:01:00,58.0,57.0,30.20,WSW,247,0.0,0.0,95,0.00,,,0.00,,2013-01-26 11:01:00,
2013-01-26 06:12:00,58.0,57.0,30.20,WSW,247,0.0,0.0,95,0.00,,,0.00,,2013-01-26 11:12:00,
2013-01-26 06:22:00,58.0,57.0,30.20,North,1,2.0,3.0,95,0.00,,,0.00,,2013-01-26 11:22:00,
2013-01-26 06:32:00,58.0,55.0,30.21,WSW,250,3.0,5.0,91,0.00,,,0.00,,2013-01-26 11:32:00,
2013-01-26 06:42:00,58.0,55.0,30.21,WSW,250,3.0,5.0,91,0.00,,,0.00,,2013-01-26 11:42:00,
2013-01-26 06:52:00,58.0,54.0,30.21,WNW,295,2.0,2.0,88,0.00,,,0.00,,2013-01-26 11:52:00,
2013-01-26 07:02:00,57.0,53.0,30.21,West,279,2.0,3.0,87,0.00,,,0.00,,2013-01-26 12:02:00,
2013-01-26 07:12:00,57.0,53.0,30.21,West,279,2.0,3.0,87,0.00,,,0.00,,2013-01-26 12:12:00,
2013-01-26 07:23:00,57.0,53.0,30.22,North,359,0.0,2.0,86,0.00,,,0.00,,2013-01-26 12:23:00,
2013-01-26 07:33:00,57.0,53.0,30.21,WNW,296,1.0,3.0,85,0.00,,,0.00,,2013-01-26 12:33:00,
2013-01-26 07:42:00,57.0,53.0,30.21,WNW,296,1.0,3.0,85,0.00,,,0.00,,2013-01-26 12:42:00,
2013-01-26 07:53:00,57.0,52.0,30.22,North,0,3.0,5.0,84,0.00,,,0.00,,2013-01-26 12:53:00,
2013-01-26 08:03:00,58.0,53.0,30.22,NNE,14,2.0,3.0,82,0.00,,,0.00,,2013-01-26 13:03:00,
2013-01-26 08:12:00,58.0,53.0,30.22,NNE,14,2.0,3.0,82,0.00,,,0.00,,2013-01-26 13:12:00,
2013-01-26 08:22:00,58.0,52.0,30.23,NNW,338,2.0,2.0,80,0.00,,,0.00,,2013-01-26 13:22:00,
2013-01-26 08:33:00,62.0,52.0,30.24,NNE,17,3.0,5.0,70,0.00,,,0.00,,2013-01-26 13:33:00,
2013-01-26 08:42:00,62.0,52.0,30.24,NNE,17,3.0,5.0,70,0.00,,,0.00,,2013-01-26 13:42:00,
2013-01-26 08:53:00,64.0,52.0,30.24,North,9,2.0,3.0,66,0.00,,,0.00,,2013-01-26 13:53:00,
2013-01-26 09:03:00,66.0,53.0,30.24,NW,311,2.0,5.0,63,0.00,,,0.00,,2013-01-26 14:03:00,
2013-01-26 09:12:00,66.0,53.0,30.24,NW,311,2.0,5.0,63,0.00,,,0.00,,2013-01-26 14:12:00,
2013-01-26 09:22:00,67.0,52.0,30.24,North,11,4.0,7.0,59,0.00,,,0.00,,2013-01-26 14:22:00,
2013-01-26 09:32:00,69.0,53.0,30.24,NW,316,3.0,6.0,56,0.00,,,0.00,,2013-01-26 14:32:00,
2013-01-26 09:43:00,69.0,53.0,30.24,NW,316,3.0,6.0,56,0.00,,,0.00,,2013-01-26 14:43:00,
2013-01-26 09:53:00,70.0,53.0,30.25,NE,49,3.0,6.0,54,0.00,,,0.00,,2013-01-26 14:53:00,
2013-01-26 10:03:00,72.0,54.0,30.25,East,89,2.0,6.0,53,0.00,,,0.00,,2013-01-26 15:03:00,
2013-01-26 10:12:00,72.0,54.0,30.25,East,89,2.0,6.0,53,0.00,,,0.00,,2013-01-26 15:12:00,
2013-01-26 10:22:00,74.0,55.0,30.25,NE,37,2.0,5.0,52,0.00,,,0.00,,2013-01-26 15:22:00,
2013-01-26 10:32:00,75.0,55.0,30.26,ENE,74,3.0,6.0,50,0.00,,,0.00,,2013-01-26 15:32:00,
2013-01-26 10:43:00,75.0,55.0,30.26,ENE,74,3.0,6.0,50,0.00,,,0.00,,2013-01-26 15:43:00,
2013-01-26 10:53:00,76.0,56.0,30.26,East,100,3.0,6.0,50,0.00,,,0.00,,2013-01-26 15:53:00,
2013-01-26 11:02:00,76.0,56.0,30.25,NW,313,3.0,5.0,50,0.00,,,0.00,,2013-01-26 16:02:00,
2013-01-26 11:12:00,77.0,56.0,30.25,NNE,22,3.0,7.0,49,0.00,,,0.00,,2013-01-26 16:12:00,
2013-01-26 11:22:00,77.0,56.0,30.25,NNE,22,3.0,7.0,49,0.00,,,0.00,,2013-01-26 16:22:00,
2013-01-26 11:33:00,77.0,56.0,30.25,NNW,338,2.0,7.0,48,0.00,,,0.00,,2013-01-26 16:33:00,
2013-01-26 11:42:00,77.0,56.0,30.25,NNW,338,2.0,7.0,48,0.00,,,0.00,,2013-01-26 16:42:00,
2013-01-26 11:53:00,78.0,56.0,30.24,WNW,302,2.0,6.0,47,0.00,,,0.00,,2013-01-26 16:53:00,
2013-01-26 12:03:00,78.0,57.0,30.24,NE,49,2.0,5.0,49,0.00,,,0.00,,2013-01-26 17:03:00,
2013-01-26 12:13:00,78.0,57.0,30.24,NE,49,2.0,5.0,49,0.00,,,0.00,,2013-01-26 17:13:00,
2013-01-26 12:22:00,79.0,56.0,30.24,East,88,2.0,5.0,46,0.00,,,0.00,,2013-01-26 17:22:00,
2013-01-26 12:33:00,79.0,57.0,30.22,WNW,291,0.0,5.0,47,0.00,,,0.00,,2013-01-26 17:33:00,
2013-01-26 12:42:00,79.0,57.0,30.22,WNW,291,0.0,5.0,47,0.00,,,0.00,,2013-01-26 17:42:00,
2013-01-26 12:53:00,80.0,57.0,30.22,NE,45,3.0,6.0,46,0.00,,,0.00,,2013-01-26 17:53:00,
2013-01-26 13:03:00,80.0,58.0,30.21,ENE,57,3.0,6.0,47,0.00,,,0.00,,2013-01-26 18:03:00,
2013-01-26 13:12:00,80.0,58.0,30.21,ENE,57,3.0,6.0,47,0.00,,,0.00,,2013-01-26 18:12:00,
2013-01-26 13:22:00,79.0,58.0,30.20,NE,52,6.0,8.0,48,0.00,,,0.00,,2013-01-26 18:22:00,
2013-01-26 13:33:00,79.0,59.0,30.19,NNW,339,5.0,8.0,50,0.00,,,0.00,,2013-01-26 18:33:00,
2013-01-26 13:42:00,79.0,59.0,30.19,NNW,339,5.0,8.0,50,0.00,,,0.00,,2013-01-26 18:42:00,
2013-01-26 13:53:00,78.0,57.0,30.19,North,2,6.0,9.0,49,0.00,,,0.00,,2013-01-26 18:53:00,
2013-01-26 14:03:00,79.0,59.0,30.18,ESE,111,5.0,8.0,51,0.00,,,0.00,,2013-01-26 19:03:00,
2013-01-26 14:12:00,79.0,59.0,30.18,ESE,111,5.0,8.0,51,0.00,,,0.00,,2013-01-26 19:12:00,
2013-01-26 14:22:00,78.0,58.0,30.18,SE,130,5.0,7.0,51,0.00,,,0.00,,2013-01-26 19:22:00,
2013-01-26 14:32:00,79.0,59.0,30.18,East,90,6.0,8.0,50,0.00,,,0.00,,2013-01-26 19:32:00,
2013-01-26 14:42:00,79.0,59.0,30.18,East,90,6.0,8.0,50,0.00,,,0.00,,2013-01-26 19:42:00,
2013-01-26 14:53:00,78.0,59.0,30.18,NNE,15,3.0,9.0,52,0.00,,,0.00,,2013-01-26 19:53:00,
2013-01-26 15:02:00,78.0,58.0,30.17,ENE,59,3.0,7.0,51,0.00,,,0.00,,2013-01-26 20:02:00,
2013-01-26 15:11:00,78.0,58.0,30.17,ENE,59,3.0,7.0,51,0.00,,,0.00,,2013-01-26 20:11:00,
2013-01-26 15:22:00,78.0,58.0,30.17,ENE,73,3.0,6.0,51,0.00,,,0.00,,2013-01-26 20:22:00,
2013-01-26 15:32:00,78.0,59.0,30.17,East,94,3.0,6.0,52,0.00,,,0.00,,2013-01-26 20:32:00,
2013-01-26 15:42:00,78.0,59.0,30.17,East,94,3.0,6.0,52,0.00,,,0.00,,2013-01-26 20:42:00,
2013-01-26 15:52:00,78.0,59.0,30.17,ENE,66,4.0,7.0,53,0.00,,,0.00,,2013-01-26 20:52:00,
2013-01-26 16:02:00,77.0,59.0,30.16,ESE,113,3.0,7.0,53,0.00,,,0.00,,2013-01-26 21:02:00,
2013-01-26 16:12:00,77.0,59.0,30.16,ESE,113,3.0,7.0,53,0.00,,,0.00,,2013-01-26 21:12:00,
2013-01-26 16:23:00,78.0,61.0,30.16,NE,37,3.0,7.0,55,0.00,,,0.00,,2013-01-26 21:23:00,
2013-01-26 16:32:00,78.0,61.0,30.17,ESE,112,3.0,5.0,55,0.00,,,0.00,,2013-01-26 21:32:00,
2013-01-26 16:42:00,78.0,61.0,30.17,ESE,112,3.0,5.0,55,0.00,,,0.00,,2013-01-26 21:42:00,
2013-01-26 16:52:00,77.0,59.0,30.17,NW,318,2.0,3.0,54,0.00,,,0.00,,2013-01-26 21:52:00,
2013-01-26 17:02:00,76.0,59.0,30.17,North,5,3.0,6.0,56,0.00,,,0.00,,2013-01-26 22:02:00,
2013-01-26 17:12:00,76.0,59.0,30.17,North,5,3.0,6.0,56,0.00,,,0.00,,2013-01-26 22:12:00,
2013-01-26 17:22:00,76.0,60.0,30.17,ENE,64,4.0,6.0,57,0.00,,,0.00,,2013-01-26 22:22:00,
2013-01-26 17:32:00,75.0,59.0,30.18,South,183,4.0,6.0,58,0.00,,,0.00,,2013-01-26 22:32:00,
2013-01-26 17:42:00,75.0,59.0,30.18,South,183,4.0,6.0,58,0.00,,,0.00,,2013-01-26 22:42:00,
2013-01-26 17:52:00,76.0,60.0,30.18,SE,128,3.0,5.0,57,0.00,,,0.00,,2013-01-26 22:52:00,
2013-01-26 18:01:00,74.0,60.0,30.18,NW,306,2.0,3.0,61,0.00,,,0.00,,2013-01-26 23:01:00,
2013-01-26 18:12:00,74.0,60.0,30.18,NW,306,2.0,3.0,61,0.00,,,0.00,,2013-01-26 23:12:00,
2013-01-26 18:22:00,72.0,59.0,30.18,SSE,151,2.0,2.0,64,0.00,,,0.00,,2013-01-26 23:22:00,
2013-01-26 18:32:00,71.0,59.0,30.18,SSW,203,1.0,2.0,67,0.00,,,0.00,,2013-01-26 23:32:00,
2013-01-26 18:42:00,71.0,59.0,30.18,SSW,203,1.0,2.0,67,0.00,,,0.00,,2013-01-26 23:42:00,
2013-01-26 18:52:00,70.0,59.0,30.18,East,80,0.0,0.0,68,0.00,,,0.00,,2013-01-26 23:52:00,
2013-01-26 19:02:00,70.0,60.0,30.19,NE,52,0.0,0.0,70,0.00,,,0.00,,2013-01-27 00:02:00,
2013-01-26 19:12:00,70.0,60.0,30.19,NE,52,0.0,0.0,70,0.00,,,0.00,,2013-01-27 00:12:00,
2013-01-26 19:22:00,69.0,59.0,30.19,ESE,110,1.0,2.0,71,0.00,,,0.00,,2013-01-27 00:22:00,
2013-01-26 19:32:00,68.0,59.0,30.19,ENE,64,0.0,0.0,73,0.00,,,0.00,,2013-01-27 00:32:00,
2013-01-26 19:42:00,68.0,59.0,30.19,ENE,64,0.0,0.0,73,0.00,,,0.00,,2013-01-27 00:42:00,
2013-01-26 19:52:00,68.0,59.0,30.19,ENE,58,2.0,3.0,74,0.00,,,0.00,,2013-01-27 00:52:00,
2013-01-26 20:01:00,68.0,59.0,30.19,North,351,2.0,3.0,74,0.00,,,0.00,,2013-01-27 01:01:00,
2013-01-26 20:11:00,68.0,59.0,30.19,North,351,2.0,3.0,74,0.00,,,0.00,,2013-01-27 01:11:00,
2013-01-26 20:22:00,68.0,60.0,30.19,South,177,0.0,0.0,75,0.00,,,0.00,,2013-01-27 01:22:00,
2013-01-26 20:32:00,68.0,60.0,30.20,ENE,68,0.0,0.0,75,0.00,,,0.00,,2013-01-27 01:32:00,
2013-01-26 20:42:00,68.0,60.0,30.20,ENE,68,0.0,0.0,75,0.00,,,0.00,,2013-01-27 01:42:00,
2013-01-26 20:52:00,67.0,60.0,30.20,ENE,59,0.0,2.0,77,0.00,,,0.00,,2013-01-27 01:52:00,
2013-01-26 21:01:00,67.0,60.0,30.20,NNE,20,0.0,0.0,78,0.00,,,0.00,,2013-01-27 02:01:00,
2013-01-26 21:12:00,67.0,60.0,30.20,NNE,20,0.0,0.0,78,0.00,,,0.00,,2013-01-27 02:12:00,
2013-01-26 21:22:00,67.0,60.0,30.20,NE,45,0.0,0.0,79,0.00,,,0.00,,2013-01-27 02:22:00,
2013-01-26 21:32:00,66.0,60.0,30.20,NE,45,0.0,2.0,80,0.00,,,0.00,,2013-01-27 02:32:00,
2013-01-26 21:42:00,66.0,60.0,30.20,NE,45,0.0,2.0,80,0.00,,,0.00,,2013-01-27 02:42:00,
2013-01-26 21:52:00,65.0,59.0,30.21,NW,315,0.0,0.0,81,0.00,,,0.00,,2013-01-27 02:52:00,
2013-01-26 22:02:00,64.0,59.0,30.21,NNW,338,0.0,0.0,84,0.00,,,0.00,,2013-01-27 03:02:00,
2013-01-26 22:11:00,64.0,59.0,30.21,NNW,338,0.0,0.0,84,0.00,,,0.00,,2013-01-27 03:11:00,
2013-01-26 22:21:00,63.0,59.0,30.21,NNW,338,0.0,0.0,86,0.00,,,0.00,,2013-01-27 03:21:00,
2013-01-26 22:32:00,62.0,58.0,30.21,WSW,248,0.0,0.0,87,0.00,,,0.00,,2013-01-27 03:32:00,
2013-01-26 22:42:00,62.0,58.0,30.21,WSW,248,0.0,0.0,87,0.00,,,0.00,,2013-01-27 03:42:00,
2013-01-26 22:52:00,62.0,59.0,30.21,West,272,0.0,0.0,89,0.00,,,0.00,,2013-01-27 03:52:00,
2013-01-26 23:02:00,61.0,58.0,30.21,SW,225,0.0,0.0,90,0.00,,,0.00,,2013-01-27 04:02:00,
2013-01-26 23:12:00,61.0,58.0,30.21,SW,225,0.0,0.0,90,0.00,,,0.00,,2013-01-27 04:12:00,
2013-01-26 23:21:00,61.0,58.0,30.22,North,3,0.0,0.0,91,0.00,,,0.00,,2013-01-27 04:21:00,
2013-01-26 23:32:00,60.0,58.0,30.22,NNE,22,0.0,0.0,92,0.00,,,0.00,,2013-01-27 04:32:00,
2013-01-26 23:42:00,60.0,58.0,30.22,NNE,22,0.0,0.0,92,0.00,,,0.00,,2013-01-27 04:42:00,
2013-01-26 23:52:00,60.0,58.0,30.21,NNE,22,0.0,0.0,93,0.00,,,0.00,,2013-01-27 04:52:00,